sensor_id;sensor_type;location;lat;lon;timestamp;P1;durP1;ratioP1;P2;durP2;ratioP2
13834;SDS011;6988;52.614;13.500;2022-12-05T00:03:27;282.87;;;61.87;;
13834;SDS011;6988;52.614;13.500;2022-12-05T00:08:19;298.33;;;64.30;;
13834;SDS011;6988;52.614;13.500;2022-12-05T00:13:10;299.03;;;67.97;;
13834;SDS011;6988;52.614;13.500;2022-12-05T00:18:02;320.73;;;66.97;;
13834;SDS011;6988;52.614;13.500;2022-12-05T00:22:56;290.20;;;64.33;;
13834;SDS011;6988;52.614;13.500;2022-12-05T00:27:48;289.63;;;65.17;;
13834;SDS011;6988;52.614;13.500;2022-12-05T00:32:40;290.53;;;66.23;;
13834;SDS011;6988;52.614;13.500;2022-12-05T00:37:32;249.60;;;60.93;;
13834;SDS011;6988;52.614;13.500;2022-12-05T00:42:25;263.10;;;62.47;;
13834;SDS011;6988;52.614;13.500;2022-12-05T00:47:17;290.07;;;65.57;;
13834;SDS011;6988;52.614;13.500;2022-12-05T00:52:09;263.63;;;62.47;;
13834;SDS011;6988;52.614;13.500;2022-12-05T00:57:00;257.37;;;62.87;;
13834;SDS011;6988;52.614;13.500;2022-12-05T01:01:54;276.10;;;64.07;;
13834;SDS011;6988;52.614;13.500;2022-12-05T01:06:46;260.97;;;62.33;;
13834;SDS011;6988;52.614;13.500;2022-12-05T01:11:39;253.17;;;62.93;;
13834;SDS011;6988;52.614;13.500;2022-12-05T01:16:32;250.87;;;63.00;;
13834;SDS011;6988;52.614;13.500;2022-12-05T01:21:28;264.07;;;63.30;;
13834;SDS011;6988;52.614;13.500;2022-12-05T01:26:20;272.67;;;65.13;;
13834;SDS011;6988;52.614;13.500;2022-12-05T01:31:15;256.60;;;58.90;;
13834;SDS011;6988;52.614;13.500;2022-12-05T01:36:12;251.50;;;62.37;;
13834;SDS011;6988;52.614;13.500;2022-12-05T01:41:06;261.80;;;63.93;;
13834;SDS011;6988;52.614;13.500;2022-12-05T01:46:01;279.13;;;62.97;;
13834;SDS011;6988;52.614;13.500;2022-12-05T01:50:53;265.30;;;65.00;;
13834;SDS011;6988;52.614;13.500;2022-12-05T01:55:46;268.83;;;63.47;;
13834;SDS011;6988;52.614;13.500;2022-12-05T02:00:41;271.57;;;65.23;;
13834;SDS011;6988;52.614;13.500;2022-12-05T02:05:35;273.77;;;65.10;;
13834;SDS011;6988;52.614;13.500;2022-12-05T02:10:29;260.40;;;64.40;;
13834;SDS011;6988;52.614;13.500;2022-12-05T02:15:31;300.67;;;67.60;;
13834;SDS011;6988;52.614;13.500;2022-12-05T02:20:40;271.43;;;66.10;;
13834;SDS011;6988;52.614;13.500;2022-12-05T02:31:46;260.83;;;62.43;;
13834;SDS011;6988;52.614;13.500;2022-12-05T02:36:51;274.37;;;63.70;;
13834;SDS011;6988;52.614;13.500;2022-12-05T02:41:54;299.20;;;67.23;;
13834;SDS011;6988;52.614;13.500;2022-12-05T02:46:56;270.03;;;62.47;;
13834;SDS011;6988;52.614;13.500;2022-12-05T02:51:52;260.53;;;64.20;;
13834;SDS011;6988;52.614;13.500;2022-12-05T02:56:48;261.90;;;63.30;;
13834;SDS011;6988;52.614;13.500;2022-12-05T03:01:45;263.00;;;62.50;;
13834;SDS011;6988;52.614;13.500;2022-12-05T03:06:40;283.53;;;64.13;;
13834;SDS011;6988;52.614;13.500;2022-12-05T03:11:39;249.77;;;62.47;;
13834;SDS011;6988;52.614;13.500;2022-12-05T03:16:37;264.37;;;62.03;;
13834;SDS011;6988;52.614;13.500;2022-12-05T03:21:39;223.20;;;59.97;;
13834;SDS011;6988;52.614;13.500;2022-12-05T03:26:43;218.27;;;57.93;;
13834;SDS011;6988;52.614;13.500;2022-12-05T03:31:45;233.60;;;60.70;;
13834;SDS011;6988;52.614;13.500;2022-12-05T03:36:54;201.03;;;57.30;;
13834;SDS011;6988;52.614;13.500;2022-12-05T03:41:51;193.23;;;55.33;;
13834;SDS011;6988;52.614;13.500;2022-12-05T03:46:52;175.53;;;51.83;;
13834;SDS011;6988;52.614;13.500;2022-12-05T03:51:52;182.50;;;52.10;;
13834;SDS011;6988;52.614;13.500;2022-12-05T03:56:55;160.33;;;50.20;;
13834;SDS011;6988;52.614;13.500;2022-12-05T04:01:55;150.57;;;47.93;;
13834;SDS011;6988;52.614;13.500;2022-12-05T04:06:52;148.40;;;47.43;;
13834;SDS011;6988;52.614;13.500;2022-12-05T04:11:51;137.47;;;44.63;;
13834;SDS011;6988;52.614;13.500;2022-12-05T04:16:53;129.33;;;45.70;;
13834;SDS011;6988;52.614;13.500;2022-12-05T04:21:56;119.53;;;42.73;;
13834;SDS011;6988;52.614;13.500;2022-12-05T04:26:50;120.90;;;42.93;;
13834;SDS011;6988;52.614;13.500;2022-12-05T04:31:56;113.93;;;41.67;;
13834;SDS011;6988;52.614;13.500;2022-12-05T04:36:58;114.90;;;41.43;;
13834;SDS011;6988;52.614;13.500;2022-12-05T04:41:56;108.57;;;41.07;;
13834;SDS011;6988;52.614;13.500;2022-12-05T04:46:54;96.93;;;35.90;;
13834;SDS011;6988;52.614;13.500;2022-12-05T04:51:55;105.83;;;39.80;;
13834;SDS011;6988;52.614;13.500;2022-12-05T04:56:53;103.40;;;37.80;;
13834;SDS011;6988;52.614;13.500;2022-12-05T05:01:53;97.00;;;38.10;;
13834;SDS011;6988;52.614;13.500;2022-12-05T05:06:50;91.43;;;35.23;;
13834;SDS011;6988;52.614;13.500;2022-12-05T05:11:43;83.80;;;36.03;;
13834;SDS011;6988;52.614;13.500;2022-12-05T05:16:36;80.27;;;34.53;;
13834;SDS011;6988;52.614;13.500;2022-12-05T05:21:31;81.87;;;33.20;;
13834;SDS011;6988;52.614;13.500;2022-12-05T05:26:26;75.70;;;32.30;;
13834;SDS011;6988;52.614;13.500;2022-12-05T05:31:21;62.90;;;30.73;;
13834;SDS011;6988;52.614;13.500;2022-12-05T05:36:14;61.33;;;29.27;;
13834;SDS011;6988;52.614;13.500;2022-12-05T05:41:10;54.37;;;27.77;;
13834;SDS011;6988;52.614;13.500;2022-12-05T05:46:04;62.87;;;29.53;;
13834;SDS011;6988;52.614;13.500;2022-12-05T05:50:58;59.63;;;28.43;;
13834;SDS011;6988;52.614;13.500;2022-12-05T05:55:51;50.23;;;26.30;;
13834;SDS011;6988;52.614;13.500;2022-12-05T06:00:43;55.97;;;27.30;;
13834;SDS011;6988;52.614;13.500;2022-12-05T06:05:35;49.80;;;26.33;;
13834;SDS011;6988;52.614;13.500;2022-12-05T06:10:29;48.87;;;24.60;;
13834;SDS011;6988;52.614;13.500;2022-12-05T06:15:21;52.23;;;25.37;;
13834;SDS011;6988;52.614;13.500;2022-12-05T06:20:13;43.17;;;24.10;;
13834;SDS011;6988;52.614;13.500;2022-12-05T06:25:05;50.17;;;24.33;;
13834;SDS011;6988;52.614;13.500;2022-12-05T06:30:01;47.70;;;23.53;;
13834;SDS011;6988;52.614;13.500;2022-12-05T06:34:53;44.60;;;22.93;;
13834;SDS011;6988;52.614;13.500;2022-12-05T06:39:45;43.63;;;23.03;;
13834;SDS011;6988;52.614;13.500;2022-12-05T06:44:37;43.83;;;21.03;;
13834;SDS011;6988;52.614;13.500;2022-12-05T06:49:31;42.57;;;22.17;;
13834;SDS011;6988;52.614;13.500;2022-12-05T06:54:23;43.43;;;22.73;;
13834;SDS011;6988;52.614;13.500;2022-12-05T06:59:15;44.40;;;22.97;;
13834;SDS011;6988;52.614;13.500;2022-12-05T07:04:12;43.40;;;23.30;;
13834;SDS011;6988;52.614;13.500;2022-12-05T07:09:07;45.20;;;22.83;;
13834;SDS011;6988;52.614;13.500;2022-12-05T07:14:00;46.87;;;23.93;;
13834;SDS011;6988;52.614;13.500;2022-12-05T07:18:54;47.37;;;24.03;;
13834;SDS011;6988;52.614;13.500;2022-12-05T07:23:46;45.10;;;23.73;;
13834;SDS011;6988;52.614;13.500;2022-12-05T07:28:41;44.70;;;23.80;;
13834;SDS011;6988;52.614;13.500;2022-12-05T07:33:33;47.60;;;24.97;;
13834;SDS011;6988;52.614;13.500;2022-12-05T07:38:26;53.47;;;25.43;;
13834;SDS011;6988;52.614;13.500;2022-12-05T07:43:19;57.63;;;27.10;;
13834;SDS011;6988;52.614;13.500;2022-12-05T07:48:12;56.60;;;27.40;;
13834;SDS011;6988;52.614;13.500;2022-12-05T07:53:04;54.23;;;27.37;;
13834;SDS011;6988;52.614;13.500;2022-12-05T07:57:56;54.37;;;25.83;;
13834;SDS011;6988;52.614;13.500;2022-12-05T08:02:48;52.07;;;25.57;;
13834;SDS011;6988;52.614;13.500;2022-12-05T08:07:41;51.90;;;23.93;;
13834;SDS011;6988;52.614;13.500;2022-12-05T08:12:33;55.17;;;25.67;;
13834;SDS011;6988;52.614;13.500;2022-12-05T08:17:28;44.43;;;24.20;;
13834;SDS011;6988;52.614;13.500;2022-12-05T08:22:21;45.07;;;23.83;;
13834;SDS011;6988;52.614;13.500;2022-12-05T08:27:14;48.73;;;23.60;;
13834;SDS011;6988;52.614;13.500;2022-12-05T08:32:06;41.87;;;22.73;;
13834;SDS011;6988;52.614;13.500;2022-12-05T08:36:58;46.60;;;23.37;;
13834;SDS011;6988;52.614;13.500;2022-12-05T08:41:50;44.40;;;23.63;;
13834;SDS011;6988;52.614;13.500;2022-12-05T08:46:44;43.93;;;23.40;;
13834;SDS011;6988;52.614;13.500;2022-12-05T08:51:39;44.10;;;23.67;;
13834;SDS011;6988;52.614;13.500;2022-12-05T08:56:33;47.30;;;23.27;;
13834;SDS011;6988;52.614;13.500;2022-12-05T09:01:25;43.37;;;23.77;;
13834;SDS011;6988;52.614;13.500;2022-12-05T09:06:22;42.60;;;23.77;;
13834;SDS011;6988;52.614;13.500;2022-12-05T09:11:16;44.53;;;23.13;;
13834;SDS011;6988;52.614;13.500;2022-12-05T09:16:11;43.63;;;22.93;;
13834;SDS011;6988;52.614;13.500;2022-12-05T09:21:05;40.70;;;22.67;;
13834;SDS011;6988;52.614;13.500;2022-12-05T09:26:02;36.80;;;21.70;;
13834;SDS011;6988;52.614;13.500;2022-12-05T09:30:55;37.30;;;20.93;;
13834;SDS011;6988;52.614;13.500;2022-12-05T09:35:48;40.60;;;20.93;;
13834;SDS011;6988;52.614;13.500;2022-12-05T09:40:40;36.03;;;20.43;;
13834;SDS011;6988;52.614;13.500;2022-12-05T09:45:34;36.67;;;20.77;;
13834;SDS011;6988;52.614;13.500;2022-12-05T09:50:30;34.50;;;20.77;;
13834;SDS011;6988;52.614;13.500;2022-12-05T09:55:37;35.03;;;21.03;;
13834;SDS011;6988;52.614;13.500;2022-12-05T10:00:37;36.77;;;20.87;;
13834;SDS011;6988;52.614;13.500;2022-12-05T10:05:33;34.33;;;20.93;;
13834;SDS011;6988;52.614;13.500;2022-12-05T10:10:34;29.90;;;19.20;;
13834;SDS011;6988;52.614;13.500;2022-12-05T10:15:44;32.40;;;19.90;;
13834;SDS011;6988;52.614;13.500;2022-12-05T10:20:43;32.83;;;19.67;;
13834;SDS011;6988;52.614;13.500;2022-12-05T10:25:40;32.33;;;20.20;;
13834;SDS011;6988;52.614;13.500;2022-12-05T10:30:32;35.80;;;21.67;;
13834;SDS011;6988;52.614;13.500;2022-12-05T10:35:30;37.13;;;21.13;;
13834;SDS011;6988;52.614;13.500;2022-12-05T10:40:25;33.63;;;21.63;;
13834;SDS011;6988;52.614;13.500;2022-12-05T10:45:24;37.07;;;22.40;;
13834;SDS011;6988;52.614;13.500;2022-12-05T10:50:19;39.40;;;23.70;;
13834;SDS011;6988;52.614;13.500;2022-12-05T10:55:17;41.23;;;24.73;;
13834;SDS011;6988;52.614;13.500;2022-12-05T11:00:20;40.80;;;24.67;;
13834;SDS011;6988;52.614;13.500;2022-12-05T11:05:27;43.40;;;25.83;;
13834;SDS011;6988;52.614;13.500;2022-12-05T11:10:24;45.67;;;26.00;;
13834;SDS011;6988;52.614;13.500;2022-12-05T11:15:21;53.53;;;27.73;;
13834;SDS011;6988;52.614;13.500;2022-12-05T11:25:30;52.63;;;27.73;;
13834;SDS011;6988;52.614;13.500;2022-12-05T11:30:24;49.63;;;27.93;;
13834;SDS011;6988;52.614;13.500;2022-12-05T11:35:21;51.63;;;29.93;;
13834;SDS011;6988;52.614;13.500;2022-12-05T11:40:20;57.23;;;30.17;;
13834;SDS011;6988;52.614;13.500;2022-12-05T11:45:32;55.23;;;30.43;;
13834;SDS011;6988;52.614;13.500;2022-12-05T11:50:40;56.37;;;29.17;;
13834;SDS011;6988;52.614;13.500;2022-12-05T11:55:46;52.40;;;30.70;;
13834;SDS011;6988;52.614;13.500;2022-12-05T12:00:47;59.87;;;31.90;;
13834;SDS011;6988;52.614;13.500;2022-12-05T12:06:00;55.97;;;30.60;;
13834;SDS011;6988;52.614;13.500;2022-12-05T12:11:17;57.07;;;31.30;;
13834;SDS011;6988;52.614;13.500;2022-12-05T12:16:25;60.90;;;31.27;;
13834;SDS011;6988;52.614;13.500;2022-12-05T12:21:33;61.23;;;30.97;;
13834;SDS011;6988;52.614;13.500;2022-12-05T12:26:48;52.00;;;29.17;;
13834;SDS011;6988;52.614;13.500;2022-12-05T12:31:59;52.07;;;27.97;;
13834;SDS011;6988;52.614;13.500;2022-12-05T12:37:07;54.10;;;30.80;;
13834;SDS011;6988;52.614;13.500;2022-12-05T12:42:17;52.40;;;29.30;;
13834;SDS011;6988;52.614;13.500;2022-12-05T12:47:16;56.27;;;30.20;;
13834;SDS011;6988;52.614;13.500;2022-12-05T12:52:43;50.03;;;27.43;;
13834;SDS011;6988;52.614;13.500;2022-12-05T12:57:58;46.50;;;26.27;;
13834;SDS011;6988;52.614;13.500;2022-12-05T13:03:01;47.23;;;24.83;;
13834;SDS011;6988;52.614;13.500;2022-12-05T13:08:03;52.77;;;27.73;;
13834;SDS011;6988;52.614;13.500;2022-12-05T13:13:10;48.80;;;26.27;;
13834;SDS011;6988;52.614;13.500;2022-12-05T13:18:10;46.77;;;25.40;;
13834;SDS011;6988;52.614;13.500;2022-12-05T13:23:10;46.13;;;25.43;;
13834;SDS011;6988;52.614;13.500;2022-12-05T13:28:17;53.63;;;26.00;;
13834;SDS011;6988;52.614;13.500;2022-12-05T13:33:17;51.20;;;25.87;;
13834;SDS011;6988;52.614;13.500;2022-12-05T13:38:18;54.37;;;27.37;;
13834;SDS011;6988;52.614;13.500;2022-12-05T13:43:31;57.20;;;25.80;;
13834;SDS011;6988;52.614;13.500;2022-12-05T13:48:33;66.13;;;28.17;;
13834;SDS011;6988;52.614;13.500;2022-12-05T13:53:31;55.53;;;28.27;;
13834;SDS011;6988;52.614;13.500;2022-12-05T13:58:37;53.63;;;26.60;;
13834;SDS011;6988;52.614;13.500;2022-12-05T14:03:55;53.43;;;26.77;;
13834;SDS011;6988;52.614;13.500;2022-12-05T14:08:52;59.43;;;27.83;;
13834;SDS011;6988;52.614;13.500;2022-12-05T14:13:46;58.50;;;27.80;;
13834;SDS011;6988;52.614;13.500;2022-12-05T14:18:40;53.80;;;25.13;;
13834;SDS011;6988;52.614;13.500;2022-12-05T14:23:53;47.83;;;25.20;;
13834;SDS011;6988;52.614;13.500;2022-12-05T14:29:00;55.00;;;27.50;;
13834;SDS011;6988;52.614;13.500;2022-12-05T14:34:15;58.47;;;27.37;;
13834;SDS011;6988;52.614;13.500;2022-12-05T14:39:19;57.33;;;27.97;;
13834;SDS011;6988;52.614;13.500;2022-12-05T14:44:15;64.90;;;28.20;;
13834;SDS011;6988;52.614;13.500;2022-12-05T14:54:24;69.50;;;29.97;;
13834;SDS011;6988;52.614;13.500;2022-12-05T14:59:21;69.97;;;29.90;;
13834;SDS011;6988;52.614;13.500;2022-12-05T15:04:20;88.40;;;31.30;;
13834;SDS011;6988;52.614;13.500;2022-12-05T15:09:37;73.90;;;30.97;;
13834;SDS011;6988;52.614;13.500;2022-12-05T15:14:44;82.63;;;29.57;;
13834;SDS011;6988;52.614;13.500;2022-12-05T15:19:44;68.13;;;28.90;;
13834;SDS011;6988;52.614;13.500;2022-12-05T15:24:42;105.50;;;32.10;;
13834;SDS011;6988;52.614;13.500;2022-12-05T15:29:34;105.07;;;33.73;;
13834;SDS011;6988;52.614;13.500;2022-12-05T15:34:29;101.63;;;31.70;;
13834;SDS011;6988;52.614;13.500;2022-12-05T15:39:27;191.43;;;36.40;;
13834;SDS011;6988;52.614;13.500;2022-12-05T15:44:19;137.40;;;32.03;;
13834;SDS011;6988;52.614;13.500;2022-12-05T15:49:16;240.57;;;34.60;;
13834;SDS011;6988;52.614;13.500;2022-12-05T15:54:15;169.07;;;33.83;;
13834;SDS011;6988;52.614;13.500;2022-12-05T15:59:17;82.90;;;32.03;;
13834;SDS011;6988;52.614;13.500;2022-12-05T16:04:16;263.07;;;37.00;;
13834;SDS011;6988;52.614;13.500;2022-12-05T16:09:16;121.53;;;33.30;;
13834;SDS011;6988;52.614;13.500;2022-12-05T16:14:10;105.03;;;33.90;;
13834;SDS011;6988;52.614;13.500;2022-12-05T16:19:04;122.70;;;34.23;;
13834;SDS011;6988;52.614;13.500;2022-12-05T16:24:05;142.40;;;33.53;;
13834;SDS011;6988;52.614;13.500;2022-12-05T16:29:24;167.93;;;36.13;;
13834;SDS011;6988;52.614;13.500;2022-12-05T16:34:17;145.73;;;33.87;;
13834;SDS011;6988;52.614;13.500;2022-12-05T16:39:12;128.17;;;35.20;;
13834;SDS011;6988;52.614;13.500;2022-12-05T16:49:50;267.27;;;37.60;;
13834;SDS011;6988;52.614;13.500;2022-12-05T16:54:45;179.57;;;35.50;;
13834;SDS011;6988;52.614;13.500;2022-12-05T16:59:39;310.53;;;39.67;;
13834;SDS011;6988;52.614;13.500;2022-12-05T17:04:33;125.77;;;34.17;;
13834;SDS011;6988;52.614;13.500;2022-12-05T17:09:24;207.40;;;34.40;;
13834;SDS011;6988;52.614;13.500;2022-12-05T17:14:17;153.20;;;34.47;;
13834;SDS011;6988;52.614;13.500;2022-12-05T17:19:10;187.43;;;34.17;;
13834;SDS011;6988;52.614;13.500;2022-12-05T17:24:02;206.37;;;35.70;;
13834;SDS011;6988;52.614;13.500;2022-12-05T17:28:55;201.43;;;35.00;;
13834;SDS011;6988;52.614;13.500;2022-12-05T17:33:49;113.53;;;31.47;;
13834;SDS011;6988;52.614;13.500;2022-12-05T17:38:43;115.47;;;34.43;;
13834;SDS011;6988;52.614;13.500;2022-12-05T17:43:35;84.47;;;30.43;;
13834;SDS011;6988;52.614;13.500;2022-12-05T17:48:27;81.97;;;29.23;;
13834;SDS011;6988;52.614;13.500;2022-12-05T17:53:20;98.93;;;31.47;;
13834;SDS011;6988;52.614;13.500;2022-12-05T17:58:12;81.97;;;31.33;;
13834;SDS011;6988;52.614;13.500;2022-12-05T18:03:05;150.17;;;36.30;;
13834;SDS011;6988;52.614;13.500;2022-12-05T18:07:57;136.70;;;32.80;;
13834;SDS011;6988;52.614;13.500;2022-12-05T18:12:50;110.83;;;33.13;;
13834;SDS011;6988;52.614;13.500;2022-12-05T18:17:42;198.87;;;33.53;;
13834;SDS011;6988;52.614;13.500;2022-12-05T18:22:34;166.90;;;31.43;;
13834;SDS011;6988;52.614;13.500;2022-12-05T18:27:26;89.53;;;31.03;;
13834;SDS011;6988;52.614;13.500;2022-12-05T18:32:19;104.70;;;32.80;;
13834;SDS011;6988;52.614;13.500;2022-12-05T18:37:13;71.33;;;30.43;;
13834;SDS011;6988;52.614;13.500;2022-12-05T18:42:05;94.77;;;31.17;;
13834;SDS011;6988;52.614;13.500;2022-12-05T18:46:57;74.33;;;31.10;;
13834;SDS011;6988;52.614;13.500;2022-12-05T18:51:50;75.87;;;29.93;;
13834;SDS011;6988;52.614;13.500;2022-12-05T18:56:42;136.13;;;32.80;;
13834;SDS011;6988;52.614;13.500;2022-12-05T19:01:35;182.10;;;34.70;;
13834;SDS011;6988;52.614;13.500;2022-12-05T19:06:31;75.17;;;31.47;;
13834;SDS011;6988;52.614;13.500;2022-12-05T19:11:27;69.90;;;30.57;;
13834;SDS011;6988;52.614;13.500;2022-12-05T19:16:19;94.53;;;31.80;;
13834;SDS011;6988;52.614;13.500;2022-12-05T19:21:11;58.67;;;27.07;;
13834;SDS011;6988;52.614;13.500;2022-12-05T19:26:04;73.37;;;30.30;;
13834;SDS011;6988;52.614;13.500;2022-12-05T19:31:00;82.13;;;30.50;;
13834;SDS011;6988;52.614;13.500;2022-12-05T19:35:53;92.73;;;30.87;;
13834;SDS011;6988;52.614;13.500;2022-12-05T19:40:53;65.67;;;28.73;;
13834;SDS011;6988;52.614;13.500;2022-12-05T19:45:45;148.63;;;32.93;;
13834;SDS011;6988;52.614;13.500;2022-12-05T19:50:42;134.57;;;29.90;;
13834;SDS011;6988;52.614;13.500;2022-12-05T19:55:33;74.23;;;30.27;;
13834;SDS011;6988;52.614;13.500;2022-12-05T20:00:25;112.10;;;31.80;;
13834;SDS011;6988;52.614;13.500;2022-12-05T20:05:17;79.80;;;33.00;;
13834;SDS011;6988;52.614;13.500;2022-12-05T20:10:10;86.57;;;32.23;;
13834;SDS011;6988;52.614;13.500;2022-12-05T20:15:02;67.83;;;30.43;;
13834;SDS011;6988;52.614;13.500;2022-12-05T20:19:55;69.37;;;29.63;;
13834;SDS011;6988;52.614;13.500;2022-12-05T20:24:47;60.97;;;26.47;;
13834;SDS011;6988;52.614;13.500;2022-12-05T20:29:40;70.93;;;26.00;;
13834;SDS011;6988;52.614;13.500;2022-12-05T20:34:34;64.13;;;26.07;;
13834;SDS011;6988;52.614;13.500;2022-12-05T20:39:26;70.23;;;25.67;;
13834;SDS011;6988;52.614;13.500;2022-12-05T20:44:18;80.07;;;25.40;;
13834;SDS011;6988;52.614;13.500;2022-12-05T20:49:12;73.90;;;26.73;;
13834;SDS011;6988;52.614;13.500;2022-12-05T20:54:04;68.43;;;23.27;;
13834;SDS011;6988;52.614;13.500;2022-12-05T20:58:57;56.50;;;23.73;;
13834;SDS011;6988;52.614;13.500;2022-12-05T21:03:52;63.83;;;24.20;;
13834;SDS011;6988;52.614;13.500;2022-12-05T21:08:46;80.87;;;25.00;;
13834;SDS011;6988;52.614;13.500;2022-12-05T21:13:37;94.87;;;27.80;;
13834;SDS011;6988;52.614;13.500;2022-12-05T21:18:30;112.80;;;30.37;;
13834;SDS011;6988;52.614;13.500;2022-12-05T21:23:22;107.83;;;31.07;;
13834;SDS011;6988;52.614;13.500;2022-12-05T21:28:16;135.47;;;29.97;;
13834;SDS011;6988;52.614;13.500;2022-12-05T21:33:08;80.30;;;29.70;;
13834;SDS011;6988;52.614;13.500;2022-12-05T21:38:00;70.53;;;28.33;;
13834;SDS011;6988;52.614;13.500;2022-12-05T21:42:52;79.93;;;29.87;;
13834;SDS011;6988;52.614;13.500;2022-12-05T21:47:45;80.13;;;30.57;;
13834;SDS011;6988;52.614;13.500;2022-12-05T21:52:37;113.23;;;34.37;;
13834;SDS011;6988;52.614;13.500;2022-12-05T21:57:29;91.80;;;33.37;;
13834;SDS011;6988;52.614;13.500;2022-12-05T22:02:21;87.83;;;32.93;;
13834;SDS011;6988;52.614;13.500;2022-12-05T22:07:15;72.63;;;31.70;;
13834;SDS011;6988;52.614;13.500;2022-12-05T22:12:06;70.30;;;28.37;;
13834;SDS011;6988;52.614;13.500;2022-12-05T22:16:58;73.83;;;31.13;;
13834;SDS011;6988;52.614;13.500;2022-12-05T22:21:50;70.27;;;31.17;;
13834;SDS011;6988;52.614;13.500;2022-12-05T22:26:43;90.67;;;31.63;;
13834;SDS011;6988;52.614;13.500;2022-12-05T22:31:35;84.70;;;26.13;;
13834;SDS011;6988;52.614;13.500;2022-12-05T22:36:26;69.53;;;24.73;;
13834;SDS011;6988;52.614;13.500;2022-12-05T22:41:19;50.17;;;23.17;;
13834;SDS011;6988;52.614;13.500;2022-12-05T23:04:53;83.50;;;28.47;;
13834;SDS011;6988;52.614;13.500;2022-12-05T23:09:45;67.60;;;29.00;;
13834;SDS011;6988;52.614;13.500;2022-12-05T23:14:38;56.80;;;26.73;;
13834;SDS011;6988;52.614;13.500;2022-12-05T23:19:30;61.07;;;26.80;;
13834;SDS011;6988;52.614;13.500;2022-12-05T23:24:23;61.50;;;24.87;;
13834;SDS011;6988;52.614;13.500;2022-12-05T23:29:15;59.70;;;24.97;;
13834;SDS011;6988;52.614;13.500;2022-12-05T23:34:07;65.90;;;25.87;;
13834;SDS011;6988;52.614;13.500;2022-12-05T23:39:00;73.03;;;24.40;;
13834;SDS011;6988;52.614;13.500;2022-12-05T23:43:54;65.57;;;22.43;;
13834;SDS011;6988;52.614;13.500;2022-12-05T23:48:46;57.33;;;22.60;;
13834;SDS011;6988;52.614;13.500;2022-12-05T23:53:39;66.60;;;22.60;;
13834;SDS011;6988;52.614;13.500;2022-12-05T23:58:33;54.70;;;22.00;;
